الصفحة الرئيسية
METAR-TAF:

METAR-TAF

مطار :

إل باسو, تكساس, الولايات المتحدة

دائرة عرض: 31-48-40N, خط طول: 106-22-33W, ارتفاع: 1206 متر

مراقبة الطقس الحالي

تاريخ ووقت الإصدار 31 دقيقة قبل الساعة 04:51UTC
ريح 3 عقدة من الشمال/الشمال الغربي
درجة الحرارة 7°درجة مئوية
الرطوبة 76%
ضغط 1028 hPa
الرؤية: 16.1 كم
غيوم قليلة على ارتفاع 25000 قدم

METAR: KELP 100451Z 34003KT 10SM FEW250 07/03 A3035 RMK AO2 SLP259 T00720033

زمن: 23:22 (05:22 UTC)

توقعات

تاريخ ووقت الإصدار 5ساعات و 48 دقيقة قبل الساعة 23:34UTC
التوقعات صالحة من10 الساعة 00 UTC إلى 10 الساعة 24 UTC
ريح 6 عقدة من الغرب/الشمال الغربي
الرؤية: 10 كم
سماء صافية
من 10 الساعة 0200 UTC
ريح 4 عقدة من الشرق/الشمال الشرقي
الرؤية: 10 كم
غيوم قليلة على ارتفاع 25000 قدم
من 10 الساعة 1800 UTC
ريح 5 عقدة من الشرق/الجنوب الشرقي
الرؤية: 10 كم
غيوم مفككة على ارتفاع 25000 قدم

TAF: KELP 092334Z 1000/1024 30006KT P6SM SKC FM100200 06004KT P6SM FEW250 FM101800 11005KT P6SM BKN250

أرصاد الطقس والتوقعات من أكثر من 4000 مطار (تقارير الطقس للمطار METAR والتنبؤ بالطقس بالمطارTAF).

المحطات المتاحة هي النقط الصفراء والحمراء على الخريطة.

حرك المؤشر فوق النقطة لمعرفة اسم المحطة.

ثم انقر لمعرفة أرصاد وتوقعات الطقس.

لتغيير الخارطة: اضغط على الأزرار الخضراء مع رمز الصليب الأسود للتكبير. على الزر الأخضر مع شرطة للتصغير، أو على الأسهم الخضراء للخرائط المجاورة.


METAR-TAF: